sensor_id;sensor_type;location;lat;lon;timestamp;temperature;humidity
37268;DHT22;23154;52.542;13.362;2023-08-07T15:18:19;16.80;99.90
37268;DHT22;23154;52.542;13.362;2023-08-07T15:20:47;21.40;99.60
37268;DHT22;23154;52.542;13.362;2023-08-07T15:23:14;21.30;99.90
37268;DHT22;23154;52.542;13.362;2023-08-07T15:25:39;21.70;98.80
37268;DHT22;23154;52.542;13.362;2023-08-07T15:28:06;21.20;99.10
37268;DHT22;23154;52.542;13.362;2023-08-07T15:30:32;21.10;99.80
37268;DHT22;23154;52.542;13.362;2023-08-07T15:32:58;20.90;99.60
37268;DHT22;23154;52.542;13.362;2023-08-07T15:35:25;21.20;99.10
37268;DHT22;23154;52.542;13.362;2023-08-07T15:37:53;21.80;98.00
37268;DHT22;23154;52.542;13.362;2023-08-07T15:40:19;22.50;97.70
37268;DHT22;23154;52.542;13.362;2023-08-07T15:42:44;22.80;96.60
37268;DHT22;23154;52.542;13.362;2023-08-07T15:45:14;23.00;96.30
37268;DHT22;23154;52.542;13.362;2023-08-07T15:47:39;23.30;94.90
37268;DHT22;23154;52.542;13.362;2023-08-07T15:50:05;23.10;95.20
37268;DHT22;23154;52.542;13.362;2023-08-07T15:52:31;22.10;96.50
37268;DHT22;23154;52.542;13.362;2023-08-07T15:54:57;21.10;97.80
37268;DHT22;23154;52.542;13.362;2023-08-07T15:57:22;20.40;99.10
37268;DHT22;23154;52.542;13.362;2023-08-07T15:59:49;20.20;99.90
37268;DHT22;23154;52.542;13.362;2023-08-07T16:02:15;20.00;99.90
37268;DHT22;23154;52.542;13.362;2023-08-07T16:04:40;19.90;99.90
37268;DHT22;23154;52.542;13.362;2023-08-07T16:07:06;20.20;99.90
37268;DHT22;23154;52.542;13.362;2023-08-07T16:09:32;20.80;99.90
37268;DHT22;23154;52.542;13.362;2023-08-07T16:11:58;20.90;99.90
37268;DHT22;23154;52.542;13.362;2023-08-07T16:14:24;20.80;99.90
37268;DHT22;23154;52.542;13.362;2023-08-07T16:16:51;20.90;99.90
37268;DHT22;23154;52.542;13.362;2023-08-07T16:19:16;21.10;99.90
37268;DHT22;23154;52.542;13.362;2023-08-07T16:21:42;21.10;99.70
37268;DHT22;23154;52.542;13.362;2023-08-07T16:24:07;20.90;99.50
37268;DHT22;23154;52.542;13.362;2023-08-07T16:26:33;20.60;99.80
37268;DHT22;23154;52.542;13.362;2023-08-07T16:28:59;20.20;99.50
37268;DHT22;23154;52.542;13.362;2023-08-07T16:31:24;19.80;99.90
37268;DHT22;23154;52.542;13.362;2023-08-07T16:33:50;19.50;99.90
37268;DHT22;23154;52.542;13.362;2023-08-07T16:36:16;19.40;99.90
37268;DHT22;23154;52.542;13.362;2023-08-07T16:38:41;19.50;99.90
37268;DHT22;23154;52.542;13.362;2023-08-07T16:41:07;19.50;99.90
37268;DHT22;23154;52.542;13.362;2023-08-07T16:43:33;19.40;99.90
37268;DHT22;23154;52.542;13.362;2023-08-07T16:45:58;19.10;99.90
37268;DHT22;23154;52.542;13.362;2023-08-07T16:48:24;19.00;99.90
37268;DHT22;23154;52.542;13.362;2023-08-07T16:50:50;19.10;99.90
37268;DHT22;23154;52.542;13.362;2023-08-07T16:53:17;19.10;99.90
37268;DHT22;23154;52.542;13.362;2023-08-07T16:55:42;19.10;99.90
37268;DHT22;23154;52.542;13.362;2023-08-07T16:58:08;19.10;99.90
37268;DHT22;23154;52.542;13.362;2023-08-07T17:00:34;19.30;99.90
37268;DHT22;23154;52.542;13.362;2023-08-07T17:03:00;19.90;99.90
37268;DHT22;23154;52.542;13.362;2023-08-07T17:05:26;20.00;99.90
37268;DHT22;23154;52.542;13.362;2023-08-07T17:07:53;19.70;99.90
37268;DHT22;23154;52.542;13.362;2023-08-07T17:10:19;19.30;99.90
37268;DHT22;23154;52.542;13.362;2023-08-07T17:12:45;18.90;99.90
37268;DHT22;23154;52.542;13.362;2023-08-07T17:15:10;18.70;99.90
37268;DHT22;23154;52.542;13.362;2023-08-07T17:17:36;18.90;99.90
37268;DHT22;23154;52.542;13.362;2023-08-07T17:20:03;19.00;99.90
37268;DHT22;23154;52.542;13.362;2023-08-07T17:22:29;19.40;99.90
37268;DHT22;23154;52.542;13.362;2023-08-07T17:24:55;19.30;99.90
37268;DHT22;23154;52.542;13.362;2023-08-07T17:27:20;19.10;99.90
37268;DHT22;23154;52.542;13.362;2023-08-07T17:29:46;18.90;99.90
37268;DHT22;23154;52.542;13.362;2023-08-07T17:32:12;18.60;99.90
37268;DHT22;23154;52.542;13.362;2023-08-07T17:34:39;18.50;99.90
37268;DHT22;23154;52.542;13.362;2023-08-07T17:37:05;19.20;99.90
37268;DHT22;23154;52.542;13.362;2023-08-07T17:39:30;19.20;99.90
37268;DHT22;23154;52.542;13.362;2023-08-07T17:41:56;19.00;99.90
37268;DHT22;23154;52.542;13.362;2023-08-07T17:44:22;19.70;99.90
37268;DHT22;23154;52.542;13.362;2023-08-07T17:46:47;20.20;99.80
37268;DHT22;23154;52.542;13.362;2023-08-07T17:49:14;19.80;99.90
37268;DHT22;23154;52.542;13.362;2023-08-07T17:51:40;19.20;99.90
37268;DHT22;23154;52.542;13.362;2023-08-07T17:54:05;18.60;99.90
37268;DHT22;23154;52.542;13.362;2023-08-07T17:56:31;18.40;99.90
37268;DHT22;23154;52.542;13.362;2023-08-07T17:58:58;18.30;99.90
37268;DHT22;23154;52.542;13.362;2023-08-07T18:01:24;18.40;99.90
37268;DHT22;23154;52.542;13.362;2023-08-07T18:03:50;18.40;99.90
37268;DHT22;23154;52.542;13.362;2023-08-07T18:06:15;18.80;99.90
37268;DHT22;23154;52.542;13.362;2023-08-07T18:08:41;19.00;99.90
37268;DHT22;23154;52.542;13.362;2023-08-07T18:11:07;18.90;99.90
37268;DHT22;23154;52.542;13.362;2023-08-07T18:13:32;18.40;99.90
37268;DHT22;23154;52.542;13.362;2023-08-07T18:15:58;18.00;99.90
37268;DHT22;23154;52.542;13.362;2023-08-07T18:18:24;17.70;99.90
37268;DHT22;23154;52.542;13.362;2023-08-07T18:20:49;17.40;99.90
37268;DHT22;23154;52.542;13.362;2023-08-07T18:23:15;17.30;99.90
37268;DHT22;23154;52.542;13.362;2023-08-07T18:25:41;17.30;99.90
37268;DHT22;23154;52.542;13.362;2023-08-07T18:28:06;17.20;99.90
37268;DHT22;23154;52.542;13.362;2023-08-07T18:30:32;17.20;99.90
37268;DHT22;23154;52.542;13.362;2023-08-07T18:32:58;17.20;99.90
37268;DHT22;23154;52.542;13.362;2023-08-07T18:35:23;17.20;99.90
37268;DHT22;23154;52.542;13.362;2023-08-07T18:37:49;17.20;99.90
37268;DHT22;23154;52.542;13.362;2023-08-07T18:40:15;17.10;99.90
37268;DHT22;23154;52.542;13.362;2023-08-07T18:42:40;17.10;99.90
37268;DHT22;23154;52.542;13.362;2023-08-07T18:45:08;17.10;99.90
37268;DHT22;23154;52.542;13.362;2023-08-07T18:47:34;17.00;99.90
37268;DHT22;23154;52.542;13.362;2023-08-07T18:50:00;17.00;99.90
37268;DHT22;23154;52.542;13.362;2023-08-07T18:52:26;16.90;99.90
37268;DHT22;23154;52.542;13.362;2023-08-07T18:54:52;16.90;99.90
37268;DHT22;23154;52.542;13.362;2023-08-07T18:57:17;16.80;99.90
37268;DHT22;23154;52.542;13.362;2023-08-07T18:59:43;16.80;99.90
37268;DHT22;23154;52.542;13.362;2023-08-07T19:02:08;16.80;99.90
37268;DHT22;23154;52.542;13.362;2023-08-07T19:04:34;16.80;99.90
37268;DHT22;23154;52.542;13.362;2023-08-07T19:07:00;16.70;99.90
37268;DHT22;23154;52.542;13.362;2023-08-07T19:09:25;16.70;99.90
37268;DHT22;23154;52.542;13.362;2023-08-07T19:11:51;16.60;99.90
37268;DHT22;23154;52.542;13.362;2023-08-07T19:14:17;16.70;99.90
37268;DHT22;23154;52.542;13.362;2023-08-07T19:16:42;16.60;99.90
37268;DHT22;23154;52.542;13.362;2023-08-07T19:19:11;16.60;99.90
37268;DHT22;23154;52.542;13.362;2023-08-07T19:21:39;16.50;99.90
37268;DHT22;23154;52.542;13.362;2023-08-07T19:24:05;16.50;99.90
37268;DHT22;23154;52.542;13.362;2023-08-07T19:26:31;16.40;99.90
37268;DHT22;23154;52.542;13.362;2023-08-07T19:28:56;16.40;99.90
37268;DHT22;23154;52.542;13.362;2023-08-07T19:31:23;16.40;99.90
37268;DHT22;23154;52.542;13.362;2023-08-07T19:33:48;16.30;99.90
37268;DHT22;23154;52.542;13.362;2023-08-07T19:36:14;16.20;99.90
37268;DHT22;23154;52.542;13.362;2023-08-07T19:38:40;16.10;99.90
37268;DHT22;23154;52.542;13.362;2023-08-07T19:41:05;15.90;99.90
37268;DHT22;23154;52.542;13.362;2023-08-07T19:43:31;15.70;99.90
37268;DHT22;23154;52.542;13.362;2023-08-07T19:45:57;15.60;99.90
37268;DHT22;23154;52.542;13.362;2023-08-07T19:48:23;15.60;99.90
37268;DHT22;23154;52.542;13.362;2023-08-07T19:50:52;15.60;99.90
37268;DHT22;23154;52.542;13.362;2023-08-07T19:53:18;15.50;99.90
37268;DHT22;23154;52.542;13.362;2023-08-07T19:55:44;15.40;99.90
37268;DHT22;23154;52.542;13.362;2023-08-07T19:58:09;15.40;99.90
37268;DHT22;23154;52.542;13.362;2023-08-07T20:00:35;15.30;99.90
37268;DHT22;23154;52.542;13.362;2023-08-07T20:03:01;15.20;99.90
37268;DHT22;23154;52.542;13.362;2023-08-07T20:05:28;15.10;99.90
37268;DHT22;23154;52.542;13.362;2023-08-07T20:07:54;15.20;99.90
37268;DHT22;23154;52.542;13.362;2023-08-07T20:10:20;15.20;99.90
37268;DHT22;23154;52.542;13.362;2023-08-07T20:12:52;15.30;99.90
37268;DHT22;23154;52.542;13.362;2023-08-07T20:15:18;15.30;99.90
37268;DHT22;23154;52.542;13.362;2023-08-07T20:17:45;15.40;99.90
37268;DHT22;23154;52.542;13.362;2023-08-07T20:20:11;15.40;99.90
37268;DHT22;23154;52.542;13.362;2023-08-07T20:22:40;15.50;99.90
37268;DHT22;23154;52.542;13.362;2023-08-07T20:25:07;15.50;99.90
37268;DHT22;23154;52.542;13.362;2023-08-07T20:27:34;15.60;99.90
37268;DHT22;23154;52.542;13.362;2023-08-07T20:29:59;15.50;99.90
37268;DHT22;23154;52.542;13.362;2023-08-07T20:32:25;15.50;99.90
37268;DHT22;23154;52.542;13.362;2023-08-07T20:34:50;15.50;99.90
37268;DHT22;23154;52.542;13.362;2023-08-07T20:37:16;15.50;99.90
37268;DHT22;23154;52.542;13.362;2023-08-07T20:39:42;15.50;99.90
37268;DHT22;23154;52.542;13.362;2023-08-07T20:42:07;15.50;99.90
37268;DHT22;23154;52.542;13.362;2023-08-07T20:44:34;15.40;99.90
37268;DHT22;23154;52.542;13.362;2023-08-07T20:47:00;15.40;99.90
37268;DHT22;23154;52.542;13.362;2023-08-07T20:49:26;15.40;99.90
37268;DHT22;23154;52.542;13.362;2023-08-07T20:51:51;15.30;99.90
37268;DHT22;23154;52.542;13.362;2023-08-07T20:54:17;15.40;99.90
37268;DHT22;23154;52.542;13.362;2023-08-07T20:56:43;15.40;99.90
37268;DHT22;23154;52.542;13.362;2023-08-07T20:59:08;15.40;99.90
37268;DHT22;23154;52.542;13.362;2023-08-07T21:01:34;15.40;99.90
37268;DHT22;23154;52.542;13.362;2023-08-07T21:04:00;15.40;99.90
37268;DHT22;23154;52.542;13.362;2023-08-07T21:06:25;15.40;99.90
37268;DHT22;23154;52.542;13.362;2023-08-07T21:08:51;15.40;99.90
37268;DHT22;23154;52.542;13.362;2023-08-07T21:11:17;15.40;99.90
37268;DHT22;23154;52.542;13.362;2023-08-07T21:13:42;15.40;99.90
37268;DHT22;23154;52.542;13.362;2023-08-07T21:16:08;15.40;99.90
37268;DHT22;23154;52.542;13.362;2023-08-07T21:18:34;15.30;99.90
37268;DHT22;23154;52.542;13.362;2023-08-07T21:20:59;15.30;99.90
37268;DHT22;23154;52.542;13.362;2023-08-07T21:23:25;15.30;99.90
37268;DHT22;23154;52.542;13.362;2023-08-07T21:25:51;15.30;99.90
37268;DHT22;23154;52.542;13.362;2023-08-07T21:28:18;15.30;99.90
37268;DHT22;23154;52.542;13.362;2023-08-07T21:30:43;15.20;99.90
37268;DHT22;23154;52.542;13.362;2023-08-07T21:33:10;15.20;99.90
37268;DHT22;23154;52.542;13.362;2023-08-07T21:35:36;15.10;99.90
37268;DHT22;23154;52.542;13.362;2023-08-07T21:38:02;15.00;99.90
37268;DHT22;23154;52.542;13.362;2023-08-07T21:40:28;14.90;99.90
37268;DHT22;23154;52.542;13.362;2023-08-07T21:42:59;14.90;99.90
37268;DHT22;23154;52.542;13.362;2023-08-07T21:45:25;14.80;99.90
37268;DHT22;23154;52.542;13.362;2023-08-07T21:47:52;14.80;99.90
37268;DHT22;23154;52.542;13.362;2023-08-07T21:50:18;14.80;99.90
37268;DHT22;23154;52.542;13.362;2023-08-07T21:52:45;14.80;99.90
37268;DHT22;23154;52.542;13.362;2023-08-07T21:55:12;14.70;99.90
37268;DHT22;23154;52.542;13.362;2023-08-07T21:57:39;14.70;99.90
37268;DHT22;23154;52.542;13.362;2023-08-07T22:00:07;14.70;99.90
37268;DHT22;23154;52.542;13.362;2023-08-07T22:02:39;14.70;99.90
37268;DHT22;23154;52.542;13.362;2023-08-07T22:05:05;14.60;99.90
37268;DHT22;23154;52.542;13.362;2023-08-07T22:07:32;14.70;99.90
37268;DHT22;23154;52.542;13.362;2023-08-07T22:09:59;14.80;99.90
37268;DHT22;23154;52.542;13.362;2023-08-07T22:12:24;14.80;99.90
37268;DHT22;23154;52.542;13.362;2023-08-07T22:14:51;14.80;99.90
